Portada
METAR-TAF:

METAR-TAF

Aeropuertos :

Aeropuerto Internacional de Kuwait

Ciudad de Kuwait, Kuwait

latitud: 29-13N, longitud: 047-59E, altitud: 55 m

Observación

El informe se hizo hace 1 hora y 2 minutos, a las 06:00 UTC
Viento 19 kt del norte-noroeste
Temperatura 38°C
Humedad 12%
Presión 1002 hPa
Visibilidad 10 km o más
sin nubes por debajo de 1500 m y sin presencia de cumulonimbus.

METAR: OKBK 190600Z 34019KT CAVOK 38/04 Q1002 NOSIG

Hora: 10:02 (07:02 UTC)

Pronóstico

El informe se hizo hace 2 horas y 17 minutos, a las 04:45 UTC
Pronóstico válido del 19 a las 06 UTC al 20 a las 12 UTC
Viento 15 kt del norte-noroeste con ráfagas de 25 kt
Visibilidad: 8000 m
Temporalmente
del 19 a las 06 UTC al 19 a las 15 UTC
Visibilidad: 3000 m
Ventisca alta de polvo

TAF: OKBK 190445Z 1906/2012 33015G25KT 8000 NSC TEMPO 1906/1915 3000 BLDU

Observaciones y pronósticos meteorológicos de más de 4000 aeropuertos (mensajes METAR y TAF).

Los puntos amarillos y rojos representan las estaciones disponibles.

Ponga el ratón en el punto deseado para ver el nombre de la estación.

Haga clic para ver las observaciones y los pronósticos meteorológicos.

Para cambiar el mapa : haga clic en los botones verdes con una cruz de color negro para hacer un zoom, en el botón verde con un guión para alejar o en las flechas verdes para mapas adyacentes.


METAR-TAF: